Time;durP1;ratioP1;P1;durP2;ratioP2;P2;SDS_P1;SDS_P2;PMS_P1;PMS_P2;Temp;Humidity;BMP_temperature;BMP_pressure;BME280_temperature;BME280_humidity;BME280_pressure;Samples;Min_cycle;Max_cycle;Signal;HPM_P1;HPM_P2
2023/10/20 00:00:06;;;;;;;16.77;15.03;;;8.60;99.90;;;;;;5040113;28;20574;-56
2023/10/20 00:02:32;;;;;;;17.07;12.93;;;8.70;99.90;;;;;;5044100;28;20290;-55
2023/10/20 00:04:58;;;;;;;15.40;13.80;;;8.90;99.90;;;;;;5014874;28;20211;-56
2023/10/20 00:07:23;;;;;;;15.27;13.57;;;8.80;99.90;;;;;;5032930;28;20222;-56
2023/10/20 00:09:49;;;;;;;14.77;12.87;;;8.80;99.90;;;;;;5036961;28;20309;-57
2023/10/20 00:12:15;;;;;;;14.43;13.03;;;8.70;99.90;;;;;;5036710;28;20491;-56
2023/10/20 00:14:41;;;;;;;14.60;12.60;;;8.60;99.90;;;;;;5019065;28;20665;-56
2023/10/20 00:17:06;;;;;;;16.03;13.03;;;8.80;99.90;;;;;;5032621;28;20273;-57
2023/10/20 00:19:32;;;;;;;14.10;12.63;;;8.60;99.90;;;;;;5032348;28;20951;-56
2023/10/20 00:21:58;;;;;;;14.63;13.17;;;8.50;99.90;;;;;;5031851;28;20202;-57
2023/10/20 00:24:23;;;;;;;16.67;12.90;;;8.70;99.90;;;;;;5036988;28;20195;-57
2023/10/20 00:26:49;;;;;;;14.77;12.90;;;8.70;99.90;;;;;;5037071;28;20225;-57
2023/10/20 00:29:15;;;;;;;14.33;12.83;;;8.80;99.90;;;;;;5038973;28;20193;-57
2023/10/20 00:31:41;;;;;;;13.00;11.70;;;8.70;99.90;;;;;;5035016;28;20264;-57
2023/10/20 00:34:06;;;;;;;14.87;13.13;;;8.70;99.90;;;;;;5040791;28;20998;-57
2023/10/20 00:36:32;;;;;;;14.87;11.70;;;8.80;99.90;;;;;;5033966;28;20194;-57
2023/10/20 00:38:57;;;;;;;12.90;11.50;;;8.60;99.90;;;;;;5028459;28;20545;-56
2023/10/20 00:41:23;;;;;;;13.77;11.87;;;8.70;99.90;;;;;;5034085;28;20335;-57
2023/10/20 00:43:48;;;;;;;12.97;11.73;;;8.70;99.90;;;;;;5034035;28;20766;-57
2023/10/20 00:46:14;;;;;;;13.37;11.97;;;8.60;99.90;;;;;;5041467;28;20198;-57
2023/10/20 00:48:40;;;;;;;12.47;11.23;;;8.40;99.90;;;;;;5039585;28;20226;-57
2023/10/20 00:51:07;;;;;;;14.33;12.93;;;8.50;99.90;;;;;;5035256;28;20209;-56
2023/10/20 00:53:34;;;;;;;12.07;10.87;;;8.30;99.90;;;;;;5031507;28;20210;-56
2023/10/20 00:56:02;;;;;;;12.37;11.07;;;8.40;99.90;;;;;;5036810;28;20272;-57
2023/10/20 00:58:29;;;;;;;13.30;11.90;;;8.50;99.90;;;;;;5017657;28;20231;-56
2023/10/20 01:00:55;;;;;;;12.80;11.43;;;8.40;99.90;;;;;;5040476;28;20246;-56
2023/10/20 01:03:22;;;;;;;12.67;10.50;;;8.30;99.90;;;;;;5041885;28;20202;-56
2023/10/20 01:05:48;;;;;;;13.20;11.77;;;8.30;99.90;;;;;;5035175;28;20666;-56
2023/10/20 01:08:14;;;;;;;13.00;11.20;;;8.50;99.90;;;;;;5038965;28;20237;-57
2023/10/20 01:10:40;;;;;;;13.50;11.77;;;8.30;99.90;;;;;;5042883;28;20231;-56
2023/10/20 01:13:08;;;;;;;13.10;11.53;;;8.40;99.90;;;;;;5038182;28;20206;-57
2023/10/20 01:15:33;;;;;;;12.97;11.70;;;8.30;99.90;;;;;;5025843;28;20289;-57
2023/10/20 01:17:59;;;;;;;14.07;11.80;;;8.40;99.90;;;;;;5046476;28;20213;-58
2023/10/20 01:20:25;;;;;;;13.33;11.93;;;8.30;99.90;;;;;;5022331;28;20206;-58
2023/10/20 01:22:50;;;;;;;14.33;12.83;;;8.30;99.90;;;;;;5040250;28;20199;-56
2023/10/20 01:25:16;;;;;;;12.60;11.20;;;8.20;99.90;;;;;;5041082;28;20203;-56
2023/10/20 01:27:41;;;;;;;13.00;11.70;;;8.30;99.90;;;;;;5039376;28;20436;-57
2023/10/20 01:30:07;;;;;;;13.63;12.13;;;8.40;99.90;;;;;;5041499;28;20210;-58
2023/10/20 01:32:33;;;;;;;12.70;11.27;;;8.40;99.90;;;;;;5041107;28;20202;-58
2023/10/20 01:35:00;;;;;;;12.90;11.17;;;8.40;99.90;;;;;;5038111;28;20264;-58
2023/10/20 01:37:25;;;;;;;11.77;10.57;;;8.60;99.90;;;;;;5049226;28;20278;-58
2023/10/20 01:39:51;;;;;;;11.37;10.17;;;8.60;99.90;;;;;;5024757;28;20213;-58
2023/10/20 01:42:16;;;;;;;11.03;9.90;;;8.50;99.90;;;;;;5039445;28;21080;-57
2023/10/20 01:44:42;;;;;;;12.20;11.00;;;8.40;99.90;;;;;;5038583;28;20203;-56
2023/10/20 01:47:08;;;;;;;10.03;9.03;;;8.50;99.90;;;;;;5030299;28;20668;-56
2023/10/20 01:49:34;;;;;;;11.17;10.00;;;8.40;99.90;;;;;;5018883;28;21236;-56
2023/10/20 01:51:59;;;;;;;11.37;10.17;;;8.50;99.90;;;;;;5041110;28;20225;-55
2023/10/20 01:54:25;;;;;;;10.43;9.40;;;8.50;99.90;;;;;;5045254;28;20306;-55
2023/10/20 01:56:50;;;;;;;9.87;8.93;;;8.50;99.90;;;;;;5042818;28;20778;-55
2023/10/20 01:59:16;;;;;;;10.27;9.27;;;8.60;99.90;;;;;;5039420;28;20202;-55
2023/10/20 02:01:42;;;;;;;10.47;9.43;;;8.60;99.90;;;;;;5042071;28;20688;-56
2023/10/20 02:04:07;;;;;;;9.73;8.77;;;8.60;99.90;;;;;;5048000;28;20630;-56
2023/10/20 02:06:33;;;;;;;8.10;7.47;;;8.60;99.90;;;;;;5037997;28;20282;-57
2023/10/20 02:08:59;;;;;;;11.23;8.80;;;8.50;99.90;;;;;;5024192;28;20205;-57
2023/10/20 02:11:25;;;;;;;9.10;8.17;;;8.60;99.90;;;;;;5038817;28;20195;-57
2023/10/20 02:13:50;;;;;;;9.07;8.00;;;8.70;99.90;;;;;;5039733;28;20285;-57
2023/10/20 02:16:16;;;;;;;8.77;7.87;;;8.60;99.90;;;;;;5046089;28;20217;-57
2023/10/20 02:18:41;;;;;;;9.20;8.30;;;8.70;99.90;;;;;;5041787;28;20198;-58
2023/10/20 02:21:09;;;;;;;8.67;7.73;;;8.60;99.90;;;;;;5039494;28;20199;-56
2023/10/20 02:23:36;;;;;;;8.70;7.30;;;8.70;99.90;;;;;;5036665;28;20190;-57
2023/10/20 02:26:06;;;;;;;7.67;6.97;;;8.60;99.90;;;;;;5033957;28;20636;-56
2023/10/20 02:28:33;;;;;;;8.53;7.77;;;8.60;99.90;;;;;;5023631;28;20599;-56
2023/10/20 02:31:00;;;;;;;7.93;7.03;;;8.70;99.90;;;;;;5037033;28;20198;-57
2023/10/20 02:33:26;;;;;;;6.93;6.27;;;8.80;99.90;;;;;;5042861;28;20207;-56
2023/10/20 02:35:53;;;;;;;8.43;7.63;;;8.70;99.90;;;;;;5035094;28;20206;-56
2023/10/20 02:38:21;;;;;;;7.53;6.83;;;8.70;99.90;;;;;;5035804;28;20202;-56
2023/10/20 02:40:53;;;;;;;6.90;5.83;;;8.60;99.90;;;;;;5045919;28;20203;-56
2023/10/20 02:43:19;;;;;;;6.37;5.77;;;8.80;99.90;;;;;;5035501;28;20248;-57
2023/10/20 02:45:55;;;;;;;7.37;6.33;;;8.80;99.90;;;;;;5034911;28;20691;-57
2023/10/20 02:48:21;;;;;;;5.63;5.13;;;8.80;99.90;;;;;;5039333;28;20853;-57
2023/10/20 02:50:46;;;;;;;6.17;5.57;;;8.70;99.90;;;;;;5024888;28;20348;-57
2023/10/20 02:53:15;;;;;;;5.30;4.80;;;8.60;99.90;;;;;;5040198;28;20410;-57
2023/10/20 02:55:41;;;;;;;5.27;4.77;;;8.60;99.90;;;;;;5041769;28;20205;-57
2023/10/20 02:58:07;;;;;;;5.90;5.40;;;8.40;99.90;;;;;;5041771;28;20808;-58
2023/10/20 03:00:33;;;;;;;4.73;4.33;;;8.40;99.90;;;;;;5032931;28;20209;-57
2023/10/20 03:02:59;;;;;;;6.20;5.63;;;8.50;99.90;;;;;;5040952;28;20211;-57
2023/10/20 03:05:31;;;;;;;5.17;4.67;;;8.30;99.90;;;;;;5038984;28;20289;-57
2023/10/20 03:07:58;;;;;;;5.60;5.10;;;8.30;99.90;;;;;;5041171;28;20735;-57
2023/10/20 03:10:23;;;;;;;4.80;4.40;;;8.30;99.90;;;;;;5039722;28;20195;-57
2023/10/20 03:12:49;;;;;;;4.30;4.00;;;8.20;99.90;;;;;;5043062;28;20214;-57
2023/10/20 03:15:15;;;;;;;5.30;4.63;;;8.20;99.90;;;;;;5045699;28;20273;-57
2023/10/20 03:17:40;;;;;;;6.30;5.70;;;8.20;99.90;;;;;;5038560;28;20190;-56
2023/10/20 03:20:14;;;;;;;6.20;5.67;;;8.20;99.90;;;;;;5041060;28;20632;-56
2023/10/20 03:22:40;;;;;;;5.27;4.73;;;8.30;99.90;;;;;;5019982;28;20692;-57
2023/10/20 03:25:08;;;;;;;5.87;5.27;;;8.30;99.90;;;;;;5035451;28;20254;-57
2023/10/20 03:27:34;;;;;;;5.97;4.73;;;8.20;99.90;;;;;;5038742;28;20225;-56
2023/10/20 03:29:59;;;;;;;5.30;4.80;;;8.30;99.90;;;;;;5026260;28;20284;-57
2023/10/20 03:32:25;;;;;;;5.00;4.60;;;8.00;99.90;;;;;;5025368;28;20194;-56
2023/10/20 03:34:50;;;;;;;5.43;4.57;;;8.10;99.90;;;;;;5045515;28;20220;-57
2023/10/20 03:37:16;;;;;;;4.57;4.17;;;8.20;99.90;;;;;;5038591;28;20265;-59
2023/10/20 03:39:43;;;;;;;5.20;4.57;;;8.10;99.90;;;;;;5042606;28;20645;-60
2023/10/20 03:42:11;;;;;;;5.50;5.00;;;8.30;99.90;;;;;;5039839;28;20227;-62
2023/10/20 03:44:37;;;;;;;4.93;4.47;;;8.30;99.90;;;;;;5035587;28;20191;-60
2023/10/20 03:47:05;;;;;;;5.20;4.40;;;8.30;99.90;;;;;;5039163;28;20314;-70
2023/10/20 03:49:33;;;;;;;5.23;4.73;;;8.20;99.90;;;;;;5037925;28;20194;-55
2023/10/20 03:51:59;;;;;;;5.20;3.87;;;8.30;99.90;;;;;;5043810;28;20244;-55
2023/10/20 03:54:25;;;;;;;5.20;4.80;;;8.30;99.90;;;;;;5037330;28;20665;-55
2023/10/20 03:56:51;;;;;;;5.13;4.63;;;8.20;99.90;;;;;;5040749;28;20289;-59
2023/10/20 03:59:17;;;;;;;6.40;5.00;;;8.30;99.90;;;;;;5041609;28;20206;-58
2023/10/20 04:01:43;;;;;;;5.77;5.13;;;8.20;99.90;;;;;;5034342;28;20199;-56
2023/10/20 04:04:10;;;;;;;6.00;5.40;;;8.20;99.90;;;;;;5043732;28;20240;-57
2023/10/20 04:06:36;;;;;;;5.87;5.20;;;8.10;99.90;;;;;;5032341;28;20199;-56
2023/10/20 04:09:07;;;;;;;6.83;5.53;;;8.10;99.90;;;;;;5028656;28;20302;-55
2023/10/20 04:11:34;;;;;;;5.87;4.83;;;8.10;99.90;;;;;;5034480;28;20760;-55
2023/10/20 04:14:00;;;;;;;7.43;4.73;;;8.10;99.90;;;;;;5031923;28;20199;-57
2023/10/20 04:16:27;;;;;;;5.87;4.90;;;7.90;99.90;;;;;;5034220;28;20191;-55
2023/10/20 04:18:53;;;;;;;6.13;4.93;;;7.90;99.90;;;;;;5042356;28;20732;-55
2023/10/20 04:21:18;;;;;;;6.20;5.60;;;7.80;99.90;;;;;;5037754;28;20207;-55
2023/10/20 04:23:44;;;;;;;5.13;4.63;;;7.70;99.90;;;;;;5032130;28;20230;-55
2023/10/20 04:26:20;;;;;;;5.70;5.20;;;7.70;99.90;;;;;;5042485;28;20635;-55
2023/10/20 04:28:47;;;;;;;6.83;5.23;;;7.80;99.90;;;;;;5035376;28;20291;-55
2023/10/20 04:50:47;;;;;;;5.80;5.30;;;7.70;99.90;;;;;;5041818;28;20305;-55
2023/10/20 04:56:21;;;;;;;5.67;4.93;;;7.80;99.90;;;;;;5039898;28;20225;-55
2023/10/20 04:58:34;;;;;;;5.70;4.93;;;7.70;99.90;;;;;;5046097;28;20766;-54
2023/10/20 05:01:17;;;;;;;5.93;5.13;;;7.70;99.90;;;;;;5043854;28;20198;-54
2023/10/20 05:03:46;;;;;;;4.40;4.00;;;7.70;99.90;;;;;;5042151;28;20382;-54
2023/10/20 05:06:25;;;;;;;6.93;5.77;;;7.60;99.90;;;;;;5041853;28;20222;-54
2023/10/20 05:08:51;;;;;;;6.03;5.50;;;7.50;99.90;;;;;;5041195;28;20226;-55
2023/10/20 05:11:17;;;;;;;6.40;5.70;;;7.50;99.90;;;;;;5039574;28;20249;-53
2023/10/20 05:13:42;;;;;;;7.30;5.97;;;7.70;99.90;;;;;;5039197;28;20203;-54
2023/10/20 05:16:12;;;;;;;6.03;5.40;;;7.70;99.90;;;;;;5040984;28;20290;-54
2023/10/20 05:18:40;;;;;;;6.77;6.03;;;7.50;99.90;;;;;;5041084;28;20606;-54
2023/10/20 05:21:08;;;;;;;6.97;6.27;;;7.40;99.90;;;;;;5047478;28;20198;-54
2023/10/20 05:23:34;;;;;;;8.57;6.23;;;7.50;99.90;;;;;;5041401;28;20245;-54
2023/10/20 05:26:00;;;;;;;7.43;6.00;;;7.60;99.90;;;;;;5034627;28;20282;-54
2023/10/20 05:28:26;;;;;;;7.33;6.43;;;7.60;99.90;;;;;;5039909;28;20708;-54
2023/10/20 05:30:52;;;;;;;8.00;6.47;;;7.60;99.90;;;;;;5040788;28;20207;-55
2023/10/20 05:33:18;;;;;;;6.13;5.53;;;7.60;99.90;;;;;;5040657;28;20232;-55
2023/10/20 05:35:43;;;;;;;7.73;6.93;;;7.50;99.90;;;;;;5039617;28;20190;-55
2023/10/20 05:38:09;;;;;;;7.10;6.40;;;7.50;99.90;;;;;;5038014;28;20517;-54
2023/10/20 05:40:36;;;;;;;9.40;7.20;;;7.50;99.90;;;;;;5022927;28;20591;-55
2023/10/20 05:43:03;;;;;;;9.87;6.73;;;7.50;99.90;;;;;;5032358;28;20226;-54
2023/10/20 05:45:32;;;;;;;8.03;7.23;;;7.20;99.90;;;;;;5039293;28;20287;-55
2023/10/20 05:47:59;;;;;;;6.63;6.03;;;7.10;99.90;;;;;;5041930;28;20240;-55
2023/10/20 05:50:24;;;;;;;9.57;7.30;;;7.10;99.90;;;;;;5040537;28;20282;-55
2023/10/20 05:52:51;;;;;;;7.60;6.87;;;7.20;99.90;;;;;;5031565;28;20432;-55
2023/10/20 05:55:16;;;;;;;9.97;7.80;;;7.30;99.90;;;;;;5043659;28;20199;-55
2023/10/20 05:57:42;;;;;;;9.90;7.20;;;7.30;99.90;;;;;;5032904;28;20343;-55
2023/10/20 06:00:08;;;;;;;12.00;8.37;;;7.10;99.90;;;;;;5038898;28;20218;-54
2023/10/20 06:02:34;;;;;;;7.13;6.53;;;7.10;99.90;;;;;;5043093;28;20752;-54
2023/10/20 06:05:00;;;;;;;9.10;8.10;;;7.10;99.90;;;;;;5040340;28;20257;-54
2023/10/20 06:07:27;;;;;;;7.83;6.83;;;7.00;99.90;;;;;;5044352;28;20383;-54
2023/10/20 06:09:54;;;;;;;10.17;9.13;;;7.10;99.90;;;;;;5042772;28;20198;-54
2023/10/20 06:12:19;;;;;;;10.40;8.50;;;7.20;99.90;;;;;;5037891;28;20285;-54
2023/10/20 06:14:46;;;;;;;9.10;8.20;;;7.30;99.90;;;;;;5038633;28;20274;-54
2023/10/20 06:17:11;;;;;;;11.77;8.23;;;7.20;99.90;;;;;;5044301;28;20727;-54
2023/10/20 06:19:37;;;;;;;9.90;8.77;;;7.10;99.90;;;;;;5031134;28;20198;-54
2023/10/20 06:22:03;;;;;;;11.53;9.10;;;7.20;99.90;;;;;;5040175;28;20213;-54
2023/10/20 06:24:29;;;;;;;8.53;7.20;;;7.30;99.90;;;;;;5040546;28;20214;-55
2023/10/20 06:27:02;;;;;;;9.03;7.80;;;7.30;99.90;;;;;;5038878;28;20594;-54
2023/10/20 06:29:38;;;;;;;10.07;8.70;;;7.30;99.90;;;;;;5038532;28;20665;-55
2023/10/20 06:34:39;;;;;;;9.43;8.27;;;7.40;99.90;;;;;;5040807;28;20210;-54
2023/10/20 06:37:08;;;;;;;8.93;8.03;;;7.30;99.90;;;;;;5043859;28;20272;-54
2023/10/20 06:39:37;;;;;;;12.63;8.07;;;7.20;99.90;;;;;;5043038;28;20702;-54
2023/10/20 06:42:03;;;;;;;8.53;7.60;;;7.20;99.90;;;;;;5038878;28;20222;-54
2023/10/20 06:44:30;;;;;;;11.07;8.53;;;7.40;99.90;;;;;;5037351;28;20239;-55
2023/10/20 06:46:56;;;;;;;12.43;8.83;;;7.40;99.90;;;;;;5041084;28;20210;-55
2023/10/20 06:49:23;;;;;;;10.97;9.13;;;7.30;99.90;;;;;;5047260;28;20256;-55
2023/10/20 06:51:49;;;;;;;8.83;7.53;;;7.30;99.90;;;;;;5028873;28;20234;-55
2023/10/20 06:54:14;;;;;;;12.17;8.77;;;7.30;99.90;;;;;;5037104;28;21031;-54
2023/10/20 06:56:40;;;;;;;12.03;8.33;;;7.20;99.90;;;;;;5039610;28;20662;-54
2023/10/20 06:59:05;;;;;;;10.43;8.33;;;7.20;99.90;;;;;;5037698;28;20207;-55
2023/10/20 07:01:35;;;;;;;11.77;9.23;;;7.20;99.90;;;;;;5039931;28;20208;-54
2023/10/20 07:04:00;;;;;;;11.57;9.30;;;7.20;99.90;;;;;;5038326;28;20202;-54
2023/10/20 07:06:26;;;;;;;11.43;8.20;;;7.10;99.90;;;;;;5035201;28;20238;-62
2023/10/20 07:08:52;;;;;;;15.23;8.47;;;7.00;99.90;;;;;;5042169;28;20219;-57
2023/10/20 07:11:17;;;;;;;8.37;7.57;;;7.10;99.90;;;;;;5040106;28;20340;-57
2023/10/20 07:13:46;;;;;;;10.43;8.03;;;7.10;99.90;;;;;;5021848;28;20226;-55
2023/10/20 07:16:12;;;;;;;8.87;7.63;;;7.00;99.90;;;;;;5042209;28;20339;-54
2023/10/20 07:18:38;;;;;;;8.53;7.53;;;6.90;99.90;;;;;;5038748;28;20675;-53
2023/10/20 07:21:04;;;;;;;9.53;8.33;;;6.90;99.90;;;;;;5038780;28;20251;-55
2023/10/20 07:23:29;;;;;;;8.57;7.67;;;6.90;99.90;;;;;;5115093;22;20746;-58
2023/10/20 07:25:55;;;;;;;10.63;8.60;;;7.00;99.90;;;;;;5065097;28;20213;-59
2023/10/20 07:28:21;;;;;;;8.97;7.77;;;7.10;99.90;;;;;;5064159;28;20303;-55
2023/10/20 07:30:47;;;;;;;7.93;6.97;;;7.10;99.90;;;;;;5054285;28;20197;-55
2023/10/20 07:33:12;;;;;;;11.17;8.50;;;7.00;99.90;;;;;;5072929;28;20246;-55
2023/10/20 07:35:38;;;;;;;9.63;8.17;;;6.80;99.90;;;;;;5054936;28;20239;-55
2023/10/20 07:38:04;;;;;;;9.83;8.03;;;6.80;99.90;;;;;;5070417;28;20663;-54
2023/10/20 07:40:34;;;;;;;8.80;7.90;;;7.10;99.90;;;;;;5071208;28;20232;-58
2023/10/20 07:43:00;;;;;;;11.10;8.03;;;7.00;99.90;;;;;;5052864;28;20197;-58
2023/10/20 07:45:28;;;;;;;10.20;7.40;;;6.90;99.90;;;;;;5068429;28;20197;-58
2023/10/20 07:47:53;;;;;;;10.67;7.43;;;6.90;99.90;;;;;;5070979;28;20217;-63
2023/10/20 07:50:19;;;;;;;11.87;8.10;;;6.80;99.90;;;;;;5071695;28;20228;-62
2023/10/20 07:52:44;;;;;;;8.13;7.33;;;7.00;99.90;;;;;;5071898;28;20288;-61
2023/10/20 07:55:10;;;;;;;8.67;6.87;;;7.10;99.90;;;;;;5053560;28;20208;-59
2023/10/20 07:57:36;;;;;;;11.67;8.10;;;7.10;99.90;;;;;;5070679;28;20687;-61
2023/10/20 08:00:03;;;;;;;8.70;7.20;;;7.00;99.90;;;;;;5050559;28;20194;-59
2023/10/20 08:02:29;;;;;;;8.10;7.17;;;6.90;99.90;;;;;;5069221;28;20317;-59
2023/10/20 08:04:54;;;;;;;9.00;7.17;;;6.80;99.90;;;;;;5069969;28;20292;-58
2023/10/20 08:07:20;;;;;;;9.63;8.40;;;6.80;99.90;;;;;;5070364;28;20217;-59
2023/10/20 08:09:46;;;;;;;8.13;6.70;;;6.80;99.90;;;;;;5068346;28;20213;-57
2023/10/20 08:12:12;;;;;;;11.53;7.70;;;6.90;99.90;;;;;;5070786;28;20455;-57
2023/10/20 08:14:38;;;;;;;8.07;7.27;;;6.90;99.90;;;;;;5071049;28;20205;-59
2023/10/20 08:17:05;;;;;;;8.93;7.30;;;6.90;99.90;;;;;;5069307;28;20205;-57
2023/10/20 08:19:30;;;;;;;8.93;8.03;;;6.80;99.90;;;;;;5052559;28;20196;-57
2023/10/20 08:21:56;;;;;;;8.70;7.83;;;6.80;99.90;;;;;;5070649;28;20198;-57
2023/10/20 08:24:22;;;;;;;7.27;6.53;;;6.90;99.90;;;;;;5066824;28;21005;-67
2023/10/20 08:26:48;;;;;;;10.23;7.30;;;7.00;99.90;;;;;;5072348;28;20225;-64
2023/10/20 08:29:16;;;;;;;7.73;6.50;;;7.00;99.90;;;;;;5051943;28;20198;-57
2023/10/20 08:31:41;;;;;;;7.77;6.97;;;7.00;99.90;;;;;;5071451;28;20220;-57
2023/10/20 08:34:07;;;;;;;7.10;6.50;;;6.90;99.90;;;;;;5071457;28;21135;-57
2023/10/20 08:36:32;;;;;;;7.57;6.47;;;6.80;99.90;;;;;;5065593;28;20205;-57
2023/10/20 08:39:05;;;;;;;7.93;7.13;;;6.90;99.90;;;;;;5048135;28;20201;-57
2023/10/20 08:41:30;;;;;;;7.73;6.57;;;7.00;99.90;;;;;;5052811;28;20194;-57
2023/10/20 08:43:56;;;;;;;7.27;6.23;;;7.00;99.90;;;;;;5067199;28;20227;-63
2023/10/20 08:46:24;;;;;;;6.63;6.03;;;6.90;99.90;;;;;;5054155;28;20763;-58
2023/10/20 08:48:50;;;;;;;7.03;6.13;;;6.70;99.90;;;;;;5044288;28;20253;-64
2023/10/20 08:51:17;;;;;;;7.00;6.30;;;6.80;99.90;;;;;;5066397;28;20275;-62
2023/10/20 08:53:43;;;;;;;6.77;6.03;;;6.80;99.90;;;;;;5067214;28;20216;-62
2023/10/20 08:56:14;;;;;;;6.67;5.73;;;6.90;99.90;;;;;;5051586;28;20206;-57
2023/10/20 08:58:40;;;;;;;7.53;6.67;;;6.90;99.90;;;;;;5066098;28;20205;-57
2023/10/20 09:01:06;;;;;;;6.87;5.43;;;6.90;99.90;;;;;;5067698;28;20204;-60
2023/10/20 09:03:43;;;;;;;7.43;6.20;;;7.00;99.90;;;;;;5048745;28;20189;-60
2023/10/20 09:06:16;;;;;;;6.93;6.13;;;7.00;99.90;;;;;;5066839;28;20196;-56
2023/10/20 09:08:47;;;;;;;8.43;6.27;;;6.80;99.90;;;;;;5067835;28;20228;-61
2023/10/20 09:11:13;;;;;;;6.30;5.70;;;6.80;99.90;;;;;;5068504;28;20515;-59
2023/10/20 09:13:40;;;;;;;7.53;6.30;;;7.00;99.90;;;;;;5067723;28;20239;-59
2023/10/20 09:16:10;;;;;;;8.07;6.43;;;7.00;99.90;;;;;;5066708;28;20205;-58
2023/10/20 09:19:03;;;;;;;7.63;6.00;;;7.00;99.90;;;;;;5066471;28;20273;-59
2023/10/20 09:21:28;;;;;;;6.67;5.73;;;7.00;99.90;;;;;;5067308;28;20209;-60
2023/10/20 09:24:03;;;;;;;6.73;6.10;;;7.00;99.90;;;;;;5069472;28;20384;-60
2023/10/20 09:26:30;;;;;;;8.67;6.57;;;6.90;99.90;;;;;;5067826;28;20197;-57
2023/10/20 09:28:56;;;;;;;7.27;5.97;;;7.00;99.90;;;;;;5066604;28;20221;-62
2023/10/20 09:31:23;;;;;;;6.17;5.53;;;6.90;99.90;;;;;;5068604;28;20202;-57
2023/10/20 09:33:49;;;;;;;5.90;5.23;;;6.90;99.90;;;;;;5070883;28;20197;-57
2023/10/20 09:36:15;;;;;;;6.37;5.07;;;6.90;99.90;;;;;;5071460;28;20197;-62
2023/10/20 09:38:45;;;;;;;5.73;5.17;;;7.00;99.90;;;;;;5071663;28;20202;-58
2023/10/20 09:41:17;;;;;;;7.77;5.50;;;7.00;99.90;;;;;;5051998;28;20208;-57
2023/10/20 09:43:47;;;;;;;7.23;5.93;;;6.90;99.90;;;;;;5069540;28;20222;-59
2023/10/20 09:46:28;;;;;;;5.73;5.13;;;6.80;99.90;;;;;;5073752;28;20739;-58
2023/10/20 09:48:56;;;;;;;7.47;5.50;;;6.90;99.90;;;;;;5073124;28;20221;-56
2023/10/20 09:51:23;;;;;;;7.13;5.17;;;6.90;99.90;;;;;;5071562;28;20621;-56
2023/10/20 09:53:49;;;;;;;6.23;5.53;;;7.10;99.90;;;;;;5072187;28;20671;-62
2023/10/20 09:56:15;;;;;;;5.80;5.30;;;7.20;99.90;;;;;;5071196;28;20206;-65
2023/10/20 09:58:41;;;;;;;6.27;5.63;;;7.10;99.90;;;;;;5072262;28;20268;-62
2023/10/20 10:01:08;;;;;;;5.00;4.37;;;7.10;99.90;;;;;;5072661;28;20202;-61
2023/10/20 10:03:42;;;;;;;5.17;4.63;;;7.00;99.90;;;;;;5072634;28;20194;-62
2023/10/20 10:06:15;;;;;;;5.53;4.43;;;7.00;99.90;;;;;;5071611;28;20326;-56
2023/10/20 10:08:45;;;;;;;6.50;4.77;;;6.90;99.90;;;;;;5068866;28;20335;-56
2023/10/20 10:11:19;;;;;;;5.77;5.27;;;6.90;99.90;;;;;;5072232;28;20243;-58
2023/10/20 10:13:44;;;;;;;5.90;5.17;;;6.90;99.90;;;;;;5068134;28;20310;-58
2023/10/20 10:16:13;;;;;;;5.33;4.93;;;6.80;99.90;;;;;;5070567;28;20247;-58
2023/10/20 10:18:45;;;;;;;6.33;5.73;;;6.90;99.90;;;;;;5057030;28;20984;-58
2023/10/20 10:21:24;;;;;;;7.77;5.53;;;6.80;99.90;;;;;;5064285;28;20208;-58
2023/10/20 10:24:11;;;;;;;6.10;5.50;;;6.80;99.90;;;;;;5067260;28;20376;-64
2023/10/20 10:26:51;;;;;;;6.53;4.97;;;6.90;99.90;;;;;;5067671;28;20239;-64
2023/10/20 10:29:59;;;;;;;6.60;5.53;;;6.90;99.90;;;;;;5069646;28;20223;-59
2023/10/20 10:32:36;;;;;;;8.20;5.90;;;6.90;99.90;;;;;;5072602;28;20201;-58
2023/10/20 10:35:05;;;;;;;5.67;5.07;;;6.90;99.90;;;;;;5071033;28;20194;-66
2023/10/20 10:37:37;;;;;;;7.47;5.97;;;7.00;99.90;;;;;;5067129;28;20205;-58
2023/10/20 10:40:13;;;;;;;5.60;5.10;;;7.00;99.90;;;;;;5072362;28;20267;-70
2023/10/20 10:42:40;;;;;;;7.33;4.73;;;7.10;99.90;;;;;;5074150;28;20551;-71
2023/10/20 10:45:23;;;;;;;5.70;5.10;;;7.20;99.90;;;;;;5069102;28;20280;-59
2023/10/20 10:47:50;;;;;;;5.40;4.90;;;7.30;99.90;;;;;;5069889;28;20296;-60
2023/10/20 10:50:16;;;;;;;4.10;3.80;;;7.20;99.90;;;;;;5050329;28;20287;-59
2023/10/20 10:52:43;;;;;;;4.63;4.23;;;7.10;99.90;;;;;;5071644;28;20189;-59
2023/10/20 10:55:09;;;;;;;5.67;5.07;;;6.90;99.90;;;;;;5067361;28;20197;-59
2023/10/20 10:57:35;;;;;;;4.77;4.37;;;7.00;99.90;;;;;;5072700;28;20468;-60
2023/10/20 11:00:03;;;;;;;4.77;4.30;;;7.00;99.90;;;;;;5063870;28;20675;-59
2023/10/20 11:02:29;;;;;;;4.50;4.10;;;7.00;99.90;;;;;;5066634;28;20197;-59
2023/10/20 11:04:54;;;;;;;5.00;4.40;;;6.90;99.90;;;;;;5067949;28;20211;-58
2023/10/20 11:07:21;;;;;;;4.80;4.40;;;7.00;99.90;;;;;;5067440;28;20224;-57
2023/10/20 11:09:48;;;;;;;4.27;3.87;;;7.00;99.90;;;;;;5049180;28;20731;-57
2023/10/20 11:12:14;;;;;;;5.27;4.73;;;7.00;99.90;;;;;;5071313;28;20793;-59
2023/10/20 11:14:39;;;;;;;5.93;5.33;;;7.10;99.90;;;;;;5071144;28;20988;-58
2023/10/20 11:17:05;;;;;;;5.37;4.87;;;7.00;99.90;;;;;;5069304;28;20220;-58
2023/10/20 11:19:31;;;;;;;4.27;3.37;;;7.10;99.90;;;;;;5068111;28;20344;-58
2023/10/20 11:21:57;;;;;;;4.87;4.30;;;7.00;99.90;;;;;;5053211;28;20198;-59
2023/10/20 11:24:35;;;;;;;5.37;4.70;;;7.10;99.90;;;;;;5071164;28;20275;-66
2023/10/20 11:27:08;;;;;;;4.27;3.93;;;7.10;99.90;;;;;;5068779;28;20537;-57
2023/10/20 11:29:35;;;;;;;4.20;3.80;;;7.10;99.90;;;;;;5063609;28;20616;-68
2023/10/20 11:32:05;;;;;;;4.63;3.77;;;7.20;99.90;;;;;;5062974;28;20634;-62
2023/10/20 11:34:32;;;;;;;4.50;4.10;;;7.30;99.90;;;;;;5065649;28;20200;-58
2023/10/20 11:36:59;;;;;;;5.67;4.10;;;7.30;99.90;;;;;;5064425;28;20189;-67
2023/10/20 11:39:25;;;;;;;5.57;3.80;;;7.00;99.90;;;;;;5067027;28;20190;-58
2023/10/20 11:41:52;;;;;;;3.90;3.60;;;7.10;99.90;;;;;;5069995;28;21003;-58
2023/10/20 11:44:17;;;;;;;4.40;3.67;;;7.10;99.90;;;;;;5057156;28;20190;-59
2023/10/20 11:46:43;;;;;;;4.73;3.57;;;7.10;99.90;;;;;;5069909;28;20208;-63
2023/10/20 11:49:10;;;;;;;5.23;3.57;;;7.10;99.90;;;;;;5069120;28;20296;-57
2023/10/20 11:51:39;;;;;;;5.07;3.20;;;7.10;99.90;;;;;;5066850;28;20200;-58
2023/10/20 11:54:05;;;;;;;4.97;3.63;;;7.20;99.90;;;;;;5045411;28;20397;-58
2023/10/20 11:56:31;;;;;;;3.90;3.60;;;7.10;99.90;;;;;;5068499;28;20204;-64
2023/10/20 11:59:00;;;;;;;3.97;3.67;;;6.90;99.90;;;;;;5066889;28;20667;-65
2023/10/20 12:01:26;;;;;;;3.43;3.13;;;6.90;99.90;;;;;;5066994;28;20208;-60
2023/10/20 12:03:51;;;;;;;3.97;3.60;;;7.00;99.90;;;;;;5071526;28;20202;-60
2023/10/20 12:06:17;;;;;;;3.30;3.00;;;7.20;99.90;;;;;;5066498;28;20812;-58
2023/10/20 12:08:42;;;;;;;3.33;3.13;;;7.00;99.90;;;;;;5067067;28;20229;-59
2023/10/20 12:11:08;;;;;;;3.37;3.07;;;7.10;99.90;;;;;;5067103;28;20309;-58
2023/10/20 12:13:36;;;;;;;3.20;2.83;;;7.20;99.90;;;;;;5062830;28;20205;-58
2023/10/20 12:16:04;;;;;;;3.30;3.03;;;7.20;99.90;;;;;;5071936;28;20197;-58
2023/10/20 12:18:30;;;;;;;4.10;3.73;;;7.20;99.90;;;;;;5073243;28;20193;-59
2023/10/20 12:20:56;;;;;;;3.50;3.20;;;7.30;99.90;;;;;;5053128;28;20204;-59
2023/10/20 12:23:21;;;;;;;4.03;3.67;;;7.30;99.90;;;;;;5067459;28;20707;-58
2023/10/20 12:25:47;;;;;;;3.33;3.10;;;7.20;99.90;;;;;;5071140;28;20201;-58
2023/10/20 12:28:12;;;;;;;3.30;3.00;;;7.40;99.90;;;;;;5068325;28;20835;-59
2023/10/20 12:30:38;;;;;;;3.07;2.87;;;7.40;99.90;;;;;;5072024;28;20210;-58
2023/10/20 12:33:05;;;;;;;2.97;2.77;;;7.50;99.90;;;;;;5069130;28;20197;-59
2023/10/20 12:35:31;;;;;;;3.73;2.50;;;7.60;99.90;;;;;;5066870;28;20193;-58
2023/10/20 12:37:56;;;;;;;2.50;2.30;;;7.60;99.90;;;;;;5064733;28;20221;-59
2023/10/20 12:40:22;;;;;;;3.10;2.50;;;7.60;99.90;;;;;;5066895;28;20189;-73
2023/10/20 12:42:49;;;;;;;2.93;2.70;;;7.50;99.90;;;;;;5044319;28;20197;-58
2023/10/20 12:45:14;;;;;;;2.73;2.53;;;7.60;99.90;;;;;;5046017;28;20206;-60
2023/10/20 12:47:40;;;;;;;2.57;2.40;;;7.60;99.90;;;;;;5071430;28;20224;-57
2023/10/20 12:50:06;;;;;;;3.80;2.47;;;7.70;99.90;;;;;;5065483;28;20709;-58
2023/10/20 12:52:32;;;;;;;2.33;1.93;;;7.50;99.90;;;;;;5065598;28;20208;-58
2023/10/20 12:54:57;;;;;;;2.77;2.57;;;7.50;99.90;;;;;;5065934;28;20201;-58
2023/10/20 12:57:23;;;;;;;2.47;2.33;;;7.70;99.90;;;;;;5048683;28;20202;-59
2023/10/20 12:59:48;;;;;;;2.10;1.90;;;7.60;99.90;;;;;;5065193;28;20296;-58
2023/10/20 13:02:14;;;;;;;2.03;1.93;;;7.50;99.90;;;;;;5070158;28;20265;-62
2023/10/20 13:04:39;;;;;;;2.53;2.33;;;7.40;99.90;;;;;;5069385;28;20194;-63
2023/10/20 13:07:06;;;;;;;2.13;1.90;;;7.40;99.90;;;;;;5046682;28;20296;-56
2023/10/20 13:09:31;;;;;;;3.17;1.80;;;7.50;99.90;;;;;;5070062;28;20204;-63
2023/10/20 13:11:57;;;;;;;3.73;1.80;;;7.60;99.90;;;;;;5071434;28;20284;-58
2023/10/20 13:14:23;;;;;;;1.73;1.63;;;7.60;99.90;;;;;;5074480;28;20875;-56
2023/10/20 13:16:48;;;;;;;2.83;1.97;;;7.80;99.90;;;;;;5071785;28;20201;-58